sensor_id;sensor_type;location;lat;lon;timestamp;temperature;humidity
10468;DHT22;5281;48.878;9.394;2022-09-24T00:02:15;12.50;99.90
10468;DHT22;5281;48.878;9.394;2022-09-24T00:04:43;12.50;99.90
10468;DHT22;5281;48.878;9.394;2022-09-24T00:07:09;12.50;99.90
10468;DHT22;5281;48.878;9.394;2022-09-24T00:09:36;12.60;99.90
10468;DHT22;5281;48.878;9.394;2022-09-24T00:12:03;12.60;99.90
10468;DHT22;5281;48.878;9.394;2022-09-24T00:14:29;12.70;99.90
10468;DHT22;5281;48.878;9.394;2022-09-24T00:16:56;12.70;99.90
10468;DHT22;5281;48.878;9.394;2022-09-24T00:19:23;12.70;99.90
10468;DHT22;5281;48.878;9.394;2022-09-24T00:21:51;12.70;99.90
10468;DHT22;5281;48.878;9.394;2022-09-24T00:24:18;12.70;99.90
10468;DHT22;5281;48.878;9.394;2022-09-24T00:26:59;12.70;99.90
10468;DHT22;5281;48.878;9.394;2022-09-24T00:29:27;12.60;99.90
10468;DHT22;5281;48.878;9.394;2022-09-24T00:31:54;12.70;99.90
10468;DHT22;5281;48.878;9.394;2022-09-24T00:34:21;12.70;99.90
10468;DHT22;5281;48.878;9.394;2022-09-24T00:36:48;12.80;99.90
10468;DHT22;5281;48.878;9.394;2022-09-24T00:39:18;12.90;99.90
10468;DHT22;5281;48.878;9.394;2022-09-24T00:41:45;12.90;99.90
10468;DHT22;5281;48.878;9.394;2022-09-24T00:47:14;12.80;99.90
10468;DHT22;5281;48.878;9.394;2022-09-24T00:49:44;12.80;99.90
10468;DHT22;5281;48.878;9.394;2022-09-24T00:52:12;12.90;99.90
10468;DHT22;5281;48.878;9.394;2022-09-24T00:54:40;12.90;99.90
10468;DHT22;5281;48.878;9.394;2022-09-24T00:57:08;12.90;99.90
10468;DHT22;5281;48.878;9.394;2022-09-24T00:59:35;12.90;99.90
10468;DHT22;5281;48.878;9.394;2022-09-24T01:02:02;13.00;99.90
10468;DHT22;5281;48.878;9.394;2022-09-24T01:04:29;13.00;99.90
10468;DHT22;5281;48.878;9.394;2022-09-24T01:06:57;13.00;99.90
10468;DHT22;5281;48.878;9.394;2022-09-24T01:09:25;13.10;99.90
10468;DHT22;5281;48.878;9.394;2022-09-24T01:11:58;13.00;99.90
10468;DHT22;5281;48.878;9.394;2022-09-24T01:14:41;13.00;99.90
10468;DHT22;5281;48.878;9.394;2022-09-24T01:17:18;12.90;99.90
10468;DHT22;5281;48.878;9.394;2022-09-24T01:20:16;12.80;99.90
10468;DHT22;5281;48.878;9.394;2022-09-24T01:22:57;12.80;99.90
10468;DHT22;5281;48.878;9.394;2022-09-24T01:25:33;12.80;99.90
10468;DHT22;5281;48.878;9.394;2022-09-24T01:28:18;12.80;99.90
10468;DHT22;5281;48.878;9.394;2022-09-24T01:30:57;12.80;99.90
10468;DHT22;5281;48.878;9.394;2022-09-24T01:33:26;12.80;99.90
10468;DHT22;5281;48.878;9.394;2022-09-24T01:35:56;12.80;99.90
10468;DHT22;5281;48.878;9.394;2022-09-24T01:38:27;12.80;99.90
10468;DHT22;5281;48.878;9.394;2022-09-24T01:40:57;12.80;99.90
10468;DHT22;5281;48.878;9.394;2022-09-24T01:43:26;12.90;99.90
10468;DHT22;5281;48.878;9.394;2022-09-24T01:45:59;12.80;99.90
10468;DHT22;5281;48.878;9.394;2022-09-24T01:48:28;12.80;99.90
10468;DHT22;5281;48.878;9.394;2022-09-24T01:50:59;12.80;99.90
10468;DHT22;5281;48.878;9.394;2022-09-24T01:53:29;12.80;99.90
10468;DHT22;5281;48.878;9.394;2022-09-24T01:56:00;12.70;99.90
10468;DHT22;5281;48.878;9.394;2022-09-24T01:58:31;12.70;99.90
10468;DHT22;5281;48.878;9.394;2022-09-24T02:01:04;12.70;99.90
10468;DHT22;5281;48.878;9.394;2022-09-24T02:03:34;12.80;99.90
10468;DHT22;5281;48.878;9.394;2022-09-24T02:06:06;12.80;99.90
10468;DHT22;5281;48.878;9.394;2022-09-24T02:08:38;12.70;99.90
10468;DHT22;5281;48.878;9.394;2022-09-24T02:11:06;12.70;99.90
10468;DHT22;5281;48.878;9.394;2022-09-24T02:13:38;12.60;99.90
10468;DHT22;5281;48.878;9.394;2022-09-24T02:16:12;12.50;99.90
10468;DHT22;5281;48.878;9.394;2022-09-24T02:18:43;12.50;99.90
10468;DHT22;5281;48.878;9.394;2022-09-24T02:21:14;12.50;99.90
10468;DHT22;5281;48.878;9.394;2022-09-24T02:23:44;12.50;99.90
10468;DHT22;5281;48.878;9.394;2022-09-24T02:26:13;12.40;99.90
10468;DHT22;5281;48.878;9.394;2022-09-24T02:28:40;12.40;99.90
10468;DHT22;5281;48.878;9.394;2022-09-24T02:31:12;12.40;99.90
10468;DHT22;5281;48.878;9.394;2022-09-24T02:33:42;12.40;99.90
10468;DHT22;5281;48.878;9.394;2022-09-24T02:36:28;12.40;99.90
10468;DHT22;5281;48.878;9.394;2022-09-24T02:38:55;12.40;99.90
10468;DHT22;5281;48.878;9.394;2022-09-24T02:41:23;12.40;99.90
10468;DHT22;5281;48.878;9.394;2022-09-24T02:43:50;12.40;99.90
10468;DHT22;5281;48.878;9.394;2022-09-24T02:46:18;12.40;99.90
10468;DHT22;5281;48.878;9.394;2022-09-24T02:48:45;12.50;99.90
10468;DHT22;5281;48.878;9.394;2022-09-24T02:51:11;12.50;99.90
10468;DHT22;5281;48.878;9.394;2022-09-24T02:53:38;12.50;99.90
10468;DHT22;5281;48.878;9.394;2022-09-24T02:56:06;12.40;99.90
10468;DHT22;5281;48.878;9.394;2022-09-24T02:58:33;12.40;99.90
10468;DHT22;5281;48.878;9.394;2022-09-24T03:01:02;12.40;99.90
10468;DHT22;5281;48.878;9.394;2022-09-24T03:03:31;12.30;99.90
10468;DHT22;5281;48.878;9.394;2022-09-24T03:05:57;12.30;99.90
10468;DHT22;5281;48.878;9.394;2022-09-24T03:08:24;12.30;99.90
10468;DHT22;5281;48.878;9.394;2022-09-24T03:10:51;12.30;99.90
10468;DHT22;5281;48.878;9.394;2022-09-24T03:13:20;12.40;99.90
10468;DHT22;5281;48.878;9.394;2022-09-24T03:15:47;12.40;99.90
10468;DHT22;5281;48.878;9.394;2022-09-24T03:18:14;12.40;99.90
10468;DHT22;5281;48.878;9.394;2022-09-24T03:20:42;12.30;99.90
10468;DHT22;5281;48.878;9.394;2022-09-24T03:23:09;12.30;99.90
10468;DHT22;5281;48.878;9.394;2022-09-24T03:25:35;12.30;99.90
10468;DHT22;5281;48.878;9.394;2022-09-24T03:28:02;12.30;99.90
10468;DHT22;5281;48.878;9.394;2022-09-24T03:30:29;12.30;99.90
10468;DHT22;5281;48.878;9.394;2022-09-24T03:33:13;12.30;99.90
10468;DHT22;5281;48.878;9.394;2022-09-24T03:35:41;12.40;99.90
10468;DHT22;5281;48.878;9.394;2022-09-24T03:38:08;12.30;99.90
10468;DHT22;5281;48.878;9.394;2022-09-24T03:40:35;12.30;99.90
10468;DHT22;5281;48.878;9.394;2022-09-24T03:43:01;12.30;99.90
10468;DHT22;5281;48.878;9.394;2022-09-24T03:45:28;12.30;99.90
10468;DHT22;5281;48.878;9.394;2022-09-24T03:47:55;12.30;99.90
10468;DHT22;5281;48.878;9.394;2022-09-24T03:50:21;12.20;99.90
10468;DHT22;5281;48.878;9.394;2022-09-24T03:52:49;12.30;99.90
10468;DHT22;5281;48.878;9.394;2022-09-24T03:55:16;12.20;99.90
10468;DHT22;5281;48.878;9.394;2022-09-24T03:57:43;12.30;99.90
10468;DHT22;5281;48.878;9.394;2022-09-24T04:00:10;12.20;99.90
10468;DHT22;5281;48.878;9.394;2022-09-24T04:02:37;12.20;99.90
10468;DHT22;5281;48.878;9.394;2022-09-24T04:05:05;12.30;99.90
10468;DHT22;5281;48.878;9.394;2022-09-24T04:07:32;12.30;99.90
10468;DHT22;5281;48.878;9.394;2022-09-24T04:10:00;12.30;99.90
10468;DHT22;5281;48.878;9.394;2022-09-24T04:12:27;12.30;99.90
10468;DHT22;5281;48.878;9.394;2022-09-24T04:14:54;12.30;99.90
10468;DHT22;5281;48.878;9.394;2022-09-24T04:17:20;12.40;99.90
10468;DHT22;5281;48.878;9.394;2022-09-24T04:19:47;12.40;99.90
10468;DHT22;5281;48.878;9.394;2022-09-24T04:22:15;12.40;99.90
10468;DHT22;5281;48.878;9.394;2022-09-24T04:24:42;12.50;99.90
10468;DHT22;5281;48.878;9.394;2022-09-24T04:27:10;12.50;99.90
10468;DHT22;5281;48.878;9.394;2022-09-24T04:29:37;12.50;99.90
10468;DHT22;5281;48.878;9.394;2022-09-24T04:32:04;12.60;99.90
10468;DHT22;5281;48.878;9.394;2022-09-24T04:34:30;12.60;99.90
10468;DHT22;5281;48.878;9.394;2022-09-24T04:36:57;12.60;99.90
10468;DHT22;5281;48.878;9.394;2022-09-24T04:39:24;12.70;99.90
10468;DHT22;5281;48.878;9.394;2022-09-24T04:41:52;12.70;99.90
10468;DHT22;5281;48.878;9.394;2022-09-24T04:44:20;12.60;99.90
10468;DHT22;5281;48.878;9.394;2022-09-24T04:46:47;12.60;99.90
10468;DHT22;5281;48.878;9.394;2022-09-24T04:49:13;12.70;99.90
10468;DHT22;5281;48.878;9.394;2022-09-24T04:51:40;12.80;99.90
10468;DHT22;5281;48.878;9.394;2022-09-24T04:54:07;12.80;99.90
10468;DHT22;5281;48.878;9.394;2022-09-24T04:56:34;12.90;99.90
10468;DHT22;5281;48.878;9.394;2022-09-24T04:59:01;12.90;99.90
10468;DHT22;5281;48.878;9.394;2022-09-24T05:01:28;13.00;99.90
10468;DHT22;5281;48.878;9.394;2022-09-24T05:03:55;13.10;99.90
10468;DHT22;5281;48.878;9.394;2022-09-24T05:06:22;13.10;99.90
10468;DHT22;5281;48.878;9.394;2022-09-24T05:08:49;13.10;99.90
10468;DHT22;5281;48.878;9.394;2022-09-24T05:11:15;13.10;99.90
10468;DHT22;5281;48.878;9.394;2022-09-24T05:13:43;13.10;99.90
10468;DHT22;5281;48.878;9.394;2022-09-24T05:16:10;13.10;99.90
10468;DHT22;5281;48.878;9.394;2022-09-24T05:18:38;13.10;99.90
10468;DHT22;5281;48.878;9.394;2022-09-24T05:21:05;13.10;99.90
10468;DHT22;5281;48.878;9.394;2022-09-24T05:23:32;13.20;99.90
10468;DHT22;5281;48.878;9.394;2022-09-24T05:25:59;13.20;99.90
10468;DHT22;5281;48.878;9.394;2022-09-24T05:28:43;13.30;99.90
10468;DHT22;5281;48.878;9.394;2022-09-24T05:31:09;13.30;99.90
10468;DHT22;5281;48.878;9.394;2022-09-24T05:33:37;13.40;99.90
10468;DHT22;5281;48.878;9.394;2022-09-24T05:36:05;13.40;99.90
10468;DHT22;5281;48.878;9.394;2022-09-24T05:38:31;13.40;99.90
10468;DHT22;5281;48.878;9.394;2022-09-24T05:40:58;13.40;99.90
10468;DHT22;5281;48.878;9.394;2022-09-24T05:43:25;13.40;99.90
10468;DHT22;5281;48.878;9.394;2022-09-24T05:45:53;13.50;99.90
10468;DHT22;5281;48.878;9.394;2022-09-24T05:48:21;13.50;99.90
10468;DHT22;5281;48.878;9.394;2022-09-24T05:50:49;13.60;99.90
10468;DHT22;5281;48.878;9.394;2022-09-24T05:53:20;13.50;99.90
10468;DHT22;5281;48.878;9.394;2022-09-24T05:55:47;13.60;99.90
10468;DHT22;5281;48.878;9.394;2022-09-24T05:58:14;13.60;99.90
10468;DHT22;5281;48.878;9.394;2022-09-24T06:00:40;13.70;99.90
10468;DHT22;5281;48.878;9.394;2022-09-24T06:03:10;13.80;99.90
10468;DHT22;5281;48.878;9.394;2022-09-24T06:05:38;13.80;99.90
10468;DHT22;5281;48.878;9.394;2022-09-24T06:08:09;14.00;99.90
10468;DHT22;5281;48.878;9.394;2022-09-24T06:10:36;14.10;99.90
10468;DHT22;5281;48.878;9.394;2022-09-24T06:13:03;14.30;99.90
10468;DHT22;5281;48.878;9.394;2022-09-24T06:15:30;14.30;99.90
10468;DHT22;5281;48.878;9.394;2022-09-24T06:17:57;14.40;99.90
10468;DHT22;5281;48.878;9.394;2022-09-24T06:20:23;14.50;99.90
10468;DHT22;5281;48.878;9.394;2022-09-24T06:22:53;14.60;99.90
10468;DHT22;5281;48.878;9.394;2022-09-24T06:25:23;14.60;99.90
10468;DHT22;5281;48.878;9.394;2022-09-24T06:27:52;14.60;99.90
10468;DHT22;5281;48.878;9.394;2022-09-24T06:30:25;14.50;99.90
10468;DHT22;5281;48.878;9.394;2022-09-24T06:32:52;14.50;99.90
10468;DHT22;5281;48.878;9.394;2022-09-24T06:35:18;14.60;99.90
10468;DHT22;5281;48.878;9.394;2022-09-24T06:37:46;14.60;99.90
10468;DHT22;5281;48.878;9.394;2022-09-24T06:40:13;14.60;99.90
10468;DHT22;5281;48.878;9.394;2022-09-24T06:42:41;14.60;99.90
10468;DHT22;5281;48.878;9.394;2022-09-24T06:45:09;14.70;99.90
10468;DHT22;5281;48.878;9.394;2022-09-24T06:47:36;14.70;99.90
10468;DHT22;5281;48.878;9.394;2022-09-24T06:50:04;14.80;99.90
10468;DHT22;5281;48.878;9.394;2022-09-24T06:52:31;15.00;99.90
10468;DHT22;5281;48.878;9.394;2022-09-24T06:54:57;15.00;99.90
10468;DHT22;5281;48.878;9.394;2022-09-24T06:57:24;15.20;99.90
10468;DHT22;5281;48.878;9.394;2022-09-24T06:59:52;15.40;99.90
10468;DHT22;5281;48.878;9.394;2022-09-24T07:02:19;15.60;99.90
10468;DHT22;5281;48.878;9.394;2022-09-24T07:04:45;15.80;99.90
10468;DHT22;5281;48.878;9.394;2022-09-24T07:07:12;16.00;99.90
10468;DHT22;5281;48.878;9.394;2022-09-24T07:09:59;16.10;99.90
10468;DHT22;5281;48.878;9.394;2022-09-24T07:12:27;16.20;99.90
10468;DHT22;5281;48.878;9.394;2022-09-24T07:14:55;16.30;99.90
10468;DHT22;5281;48.878;9.394;2022-09-24T07:17:22;16.10;99.90
10468;DHT22;5281;48.878;9.394;2022-09-24T07:19:49;16.10;99.90
10468;DHT22;5281;48.878;9.394;2022-09-24T07:22:16;16.30;99.90
10468;DHT22;5281;48.878;9.394;2022-09-24T07:24:42;16.50;99.90
10468;DHT22;5281;48.878;9.394;2022-09-24T07:27:09;16.80;99.90
10468;DHT22;5281;48.878;9.394;2022-09-24T07:29:36;16.90;99.90
10468;DHT22;5281;48.878;9.394;2022-09-24T07:32:05;17.00;99.90
10468;DHT22;5281;48.878;9.394;2022-09-24T07:34:31;17.10;99.90
10468;DHT22;5281;48.878;9.394;2022-09-24T07:36:58;17.20;99.90
10468;DHT22;5281;48.878;9.394;2022-09-24T07:39:25;17.40;99.90
10468;DHT22;5281;48.878;9.394;2022-09-24T07:41:52;17.50;99.90
10468;DHT22;5281;48.878;9.394;2022-09-24T07:44:19;17.50;99.90
10468;DHT22;5281;48.878;9.394;2022-09-24T07:46:48;17.50;99.90
10468;DHT22;5281;48.878;9.394;2022-09-24T07:49:16;17.50;99.90
10468;DHT22;5281;48.878;9.394;2022-09-24T07:51:43;17.30;99.90
10468;DHT22;5281;48.878;9.394;2022-09-24T07:54:10;17.10;99.90
10468;DHT22;5281;48.878;9.394;2022-09-24T07:56:37;17.00;99.90
10468;DHT22;5281;48.878;9.394;2022-09-24T07:59:05;17.20;99.90
10468;DHT22;5281;48.878;9.394;2022-09-24T08:01:32;17.10;99.90
10468;DHT22;5281;48.878;9.394;2022-09-24T08:04:00;16.90;99.90
10468;DHT22;5281;48.878;9.394;2022-09-24T08:06:28;16.80;99.90
10468;DHT22;5281;48.878;9.394;2022-09-24T08:08:57;16.80;99.90
10468;DHT22;5281;48.878;9.394;2022-09-24T08:11:24;17.00;99.90
10468;DHT22;5281;48.878;9.394;2022-09-24T08:13:51;17.20;99.90
10468;DHT22;5281;48.878;9.394;2022-09-24T08:16:18;17.40;99.90
10468;DHT22;5281;48.878;9.394;2022-09-24T08:18:46;17.40;99.90
10468;DHT22;5281;48.878;9.394;2022-09-24T08:21:12;17.30;99.90
10468;DHT22;5281;48.878;9.394;2022-09-24T08:23:41;17.20;99.90
10468;DHT22;5281;48.878;9.394;2022-09-24T08:26:09;17.10;99.90
10468;DHT22;5281;48.878;9.394;2022-09-24T08:28:36;17.00;99.90
10468;DHT22;5281;48.878;9.394;2022-09-24T08:31:05;16.90;99.90
10468;DHT22;5281;48.878;9.394;2022-09-24T08:33:33;16.90;99.90
10468;DHT22;5281;48.878;9.394;2022-09-24T08:36:02;17.00;99.90
10468;DHT22;5281;48.878;9.394;2022-09-24T08:38:29;17.10;99.90
10468;DHT22;5281;48.878;9.394;2022-09-24T08:41:03;17.30;99.90
10468;DHT22;5281;48.878;9.394;2022-09-24T08:43:42;17.60;99.90
10468;DHT22;5281;48.878;9.394;2022-09-24T08:46:15;17.90;99.90
10468;DHT22;5281;48.878;9.394;2022-09-24T08:49:00;18.10;99.90
10468;DHT22;5281;48.878;9.394;2022-09-24T08:51:34;18.40;99.90
10468;DHT22;5281;48.878;9.394;2022-09-24T08:54:05;18.80;99.90
10468;DHT22;5281;48.878;9.394;2022-09-24T08:56:37;19.10;99.90
10468;DHT22;5281;48.878;9.394;2022-09-24T08:59:20;19.40;99.90
10468;DHT22;5281;48.878;9.394;2022-09-24T09:01:54;19.50;99.90
10468;DHT22;5281;48.878;9.394;2022-09-24T09:04:26;20.00;99.90
10468;DHT22;5281;48.878;9.394;2022-09-24T09:07:06;20.60;99.90
10468;DHT22;5281;48.878;9.394;2022-09-24T09:09:47;21.00;99.90
10468;DHT22;5281;48.878;9.394;2022-09-24T09:12:22;21.40;99.90
10468;DHT22;5281;48.878;9.394;2022-09-24T09:14:55;21.40;99.90
10468;DHT22;5281;48.878;9.394;2022-09-24T09:17:34;21.60;99.90
10468;DHT22;5281;48.878;9.394;2022-09-24T09:20:05;21.90;99.90
10468;DHT22;5281;48.878;9.394;2022-09-24T09:22:36;22.00;99.90
10468;DHT22;5281;48.878;9.394;2022-09-24T09:25:14;22.10;99.90
10468;DHT22;5281;48.878;9.394;2022-09-24T09:27:44;22.30;99.90
10468;DHT22;5281;48.878;9.394;2022-09-24T09:30:19;22.70;99.90
10468;DHT22;5281;48.878;9.394;2022-09-24T09:32:59;23.00;99.90
10468;DHT22;5281;48.878;9.394;2022-09-24T09:35:35;23.20;99.90
10468;DHT22;5281;48.878;9.394;2022-09-24T09:38:12;23.40;99.90
10468;DHT22;5281;48.878;9.394;2022-09-24T09:40:45;23.40;99.90
10468;DHT22;5281;48.878;9.394;2022-09-24T09:43:14;23.30;99.90
10468;DHT22;5281;48.878;9.394;2022-09-24T09:45:49;23.20;99.90
10468;DHT22;5281;48.878;9.394;2022-09-24T09:48:22;22.80;99.90
10468;DHT22;5281;48.878;9.394;2022-09-24T09:50:54;22.40;99.90
10468;DHT22;5281;48.878;9.394;2022-09-24T09:53:25;22.50;99.90
10468;DHT22;5281;48.878;9.394;2022-09-24T09:55:53;22.50;99.90
10468;DHT22;5281;48.878;9.394;2022-09-24T09:58:24;22.20;99.90
10468;DHT22;5281;48.878;9.394;2022-09-24T10:00:52;22.40;99.90
10468;DHT22;5281;48.878;9.394;2022-09-24T10:03:30;22.30;99.90
10468;DHT22;5281;48.878;9.394;2022-09-24T10:05:59;22.50;99.90
10468;DHT22;5281;48.878;9.394;2022-09-24T10:08:27;22.60;99.90
10468;DHT22;5281;48.878;9.394;2022-09-24T10:10:55;22.80;99.90
10468;DHT22;5281;48.878;9.394;2022-09-24T10:13:24;22.90;99.80
10468;DHT22;5281;48.878;9.394;2022-09-24T10:15:53;23.00;99.20
10468;DHT22;5281;48.878;9.394;2022-09-24T10:18:27;22.90;99.40
10468;DHT22;5281;48.878;9.394;2022-09-24T10:20:55;22.60;99.90
10468;DHT22;5281;48.878;9.394;2022-09-24T10:23:27;22.30;99.90
10468;DHT22;5281;48.878;9.394;2022-09-24T10:26:00;22.20;99.90
10468;DHT22;5281;48.878;9.394;2022-09-24T10:28:30;22.10;99.90
10468;DHT22;5281;48.878;9.394;2022-09-24T10:31:17;22.20;99.90
10468;DHT22;5281;48.878;9.394;2022-09-24T10:33:47;22.40;99.90
10468;DHT22;5281;48.878;9.394;2022-09-24T10:36:18;22.70;99.90
10468;DHT22;5281;48.878;9.394;2022-09-24T10:38:46;22.90;99.90
10468;DHT22;5281;48.878;9.394;2022-09-24T10:41:24;22.90;99.90
10468;DHT22;5281;48.878;9.394;2022-09-24T10:43:54;22.80;99.90
10468;DHT22;5281;48.878;9.394;2022-09-24T10:46:39;22.80;99.90
10468;DHT22;5281;48.878;9.394;2022-09-24T10:49:16;22.80;99.90
10468;DHT22;5281;48.878;9.394;2022-09-24T10:51:50;22.50;99.90
10468;DHT22;5281;48.878;9.394;2022-09-24T10:54:35;22.40;99.90
10468;DHT22;5281;48.878;9.394;2022-09-24T10:57:13;22.30;99.90
10468;DHT22;5281;48.878;9.394;2022-09-24T10:59:50;22.00;99.90
10468;DHT22;5281;48.878;9.394;2022-09-24T11:02:30;21.80;99.90
10468;DHT22;5281;48.878;9.394;2022-09-24T11:05:02;21.70;99.90
10468;DHT22;5281;48.878;9.394;2022-09-24T11:10:44;22.10;99.90
10468;DHT22;5281;48.878;9.394;2022-09-24T11:13:22;22.30;99.90
10468;DHT22;5281;48.878;9.394;2022-09-24T11:16:05;21.90;99.90
10468;DHT22;5281;48.878;9.394;2022-09-24T11:18:40;21.90;99.90
10468;DHT22;5281;48.878;9.394;2022-09-24T11:21:21;22.10;99.90
10468;DHT22;5281;48.878;9.394;2022-09-24T11:24:27;22.20;99.90
10468;DHT22;5281;48.878;9.394;2022-09-24T11:27:06;22.20;99.90
10468;DHT22;5281;48.878;9.394;2022-09-24T11:29:48;22.40;99.90
10468;DHT22;5281;48.878;9.394;2022-09-24T11:32:25;22.50;99.90
10468;DHT22;5281;48.878;9.394;2022-09-24T11:35:06;22.60;99.90
10468;DHT22;5281;48.878;9.394;2022-09-24T11:37:49;22.80;99.90
10468;DHT22;5281;48.878;9.394;2022-09-24T11:40:36;23.00;99.90
10468;DHT22;5281;48.878;9.394;2022-09-24T11:43:18;23.30;99.90
10468;DHT22;5281;48.878;9.394;2022-09-24T11:45:56;23.70;99.90
10468;DHT22;5281;48.878;9.394;2022-09-24T11:48:46;23.80;99.90
10468;DHT22;5281;48.878;9.394;2022-09-24T11:51:25;23.90;99.90
10468;DHT22;5281;48.878;9.394;2022-09-24T11:53:59;24.00;99.90
10468;DHT22;5281;48.878;9.394;2022-09-24T11:56:31;23.90;99.90
10468;DHT22;5281;48.878;9.394;2022-09-24T11:59:13;23.50;99.90
10468;DHT22;5281;48.878;9.394;2022-09-24T12:01:47;23.40;99.90
10468;DHT22;5281;48.878;9.394;2022-09-24T12:04:18;23.60;99.90
10468;DHT22;5281;48.878;9.394;2022-09-24T12:06:51;23.70;99.90
10468;DHT22;5281;48.878;9.394;2022-09-24T12:09:23;23.80;99.90
10468;DHT22;5281;48.878;9.394;2022-09-24T12:11:54;23.80;99.90
10468;DHT22;5281;48.878;9.394;2022-09-24T12:14:25;23.90;99.90
10468;DHT22;5281;48.878;9.394;2022-09-24T12:16:58;23.90;99.90
10468;DHT22;5281;48.878;9.394;2022-09-24T12:19:31;23.80;99.90
10468;DHT22;5281;48.878;9.394;2022-09-24T12:22:01;23.50;99.90
10468;DHT22;5281;48.878;9.394;2022-09-24T12:24:33;23.30;99.90
10468;DHT22;5281;48.878;9.394;2022-09-24T12:27:05;23.10;99.90
10468;DHT22;5281;48.878;9.394;2022-09-24T12:29:39;22.90;99.90
10468;DHT22;5281;48.878;9.394;2022-09-24T12:32:30;22.70;99.90
10468;DHT22;5281;48.878;9.394;2022-09-24T12:35:30;22.50;99.90
10468;DHT22;5281;48.878;9.394;2022-09-24T12:38:02;22.20;99.90
10468;DHT22;5281;48.878;9.394;2022-09-24T12:40:54;22.00;99.90
10468;DHT22;5281;48.878;9.394;2022-09-24T12:43:28;21.90;99.90
10468;DHT22;5281;48.878;9.394;2022-09-24T12:45:59;21.70;99.90
10468;DHT22;5281;48.878;9.394;2022-09-24T12:48:28;21.60;99.90
10468;DHT22;5281;48.878;9.394;2022-09-24T12:50:58;21.50;99.90
10468;DHT22;5281;48.878;9.394;2022-09-24T12:53:31;21.40;99.90
10468;DHT22;5281;48.878;9.394;2022-09-24T12:56:00;21.10;99.90
10468;DHT22;5281;48.878;9.394;2022-09-24T12:58:34;20.90;99.90
10468;DHT22;5281;48.878;9.394;2022-09-24T13:01:10;20.70;99.90
10468;DHT22;5281;48.878;9.394;2022-09-24T13:03:38;20.50;99.90
10468;DHT22;5281;48.878;9.394;2022-09-24T13:06:22;20.40;99.90
10468;DHT22;5281;48.878;9.394;2022-09-24T13:08:49;20.30;99.90
10468;DHT22;5281;48.878;9.394;2022-09-24T13:11:28;20.20;99.90
10468;DHT22;5281;48.878;9.394;2022-09-24T13:14:00;20.10;99.90
10468;DHT22;5281;48.878;9.394;2022-09-24T13:16:28;20.10;99.90
10468;DHT22;5281;48.878;9.394;2022-09-24T13:18:58;20.10;99.90
10468;DHT22;5281;48.878;9.394;2022-09-24T13:21:28;20.10;99.90
10468;DHT22;5281;48.878;9.394;2022-09-24T13:23:56;20.10;99.90
10468;DHT22;5281;48.878;9.394;2022-09-24T13:26:29;20.10;99.90
10468;DHT22;5281;48.878;9.394;2022-09-24T13:28:59;20.10;99.90
10468;DHT22;5281;48.878;9.394;2022-09-24T13:31:36;20.20;99.90
10468;DHT22;5281;48.878;9.394;2022-09-24T13:34:13;20.20;99.90
10468;DHT22;5281;48.878;9.394;2022-09-24T13:36:46;20.30;99.90
10468;DHT22;5281;48.878;9.394;2022-09-24T13:39:16;20.20;99.90
10468;DHT22;5281;48.878;9.394;2022-09-24T13:41:52;20.20;99.90
10468;DHT22;5281;48.878;9.394;2022-09-24T13:44:27;20.20;99.90
10468;DHT22;5281;48.878;9.394;2022-09-24T13:46:59;20.00;99.90
10468;DHT22;5281;48.878;9.394;2022-09-24T13:49:28;19.90;99.90
10468;DHT22;5281;48.878;9.394;2022-09-24T13:52:07;20.10;99.90
10468;DHT22;5281;48.878;9.394;2022-09-24T13:54:45;20.00;99.90
10468;DHT22;5281;48.878;9.394;2022-09-24T13:57:19;19.80;99.90
10468;DHT22;5281;48.878;9.394;2022-09-24T13:59:47;19.40;99.90
10468;DHT22;5281;48.878;9.394;2022-09-24T14:02:24;19.40;99.90
10468;DHT22;5281;48.878;9.394;2022-09-24T14:04:54;19.60;99.90
10468;DHT22;5281;48.878;9.394;2022-09-24T14:07:23;19.70;99.90
10468;DHT22;5281;48.878;9.394;2022-09-24T14:10:00;19.80;99.90
10468;DHT22;5281;48.878;9.394;2022-09-24T14:12:27;19.90;99.90
10468;DHT22;5281;48.878;9.394;2022-09-24T14:14:54;20.00;99.90
10468;DHT22;5281;48.878;9.394;2022-09-24T14:17:23;20.30;99.90
10468;DHT22;5281;48.878;9.394;2022-09-24T14:19:53;20.40;99.90
10468;DHT22;5281;48.878;9.394;2022-09-24T14:22:24;20.40;99.90
10468;DHT22;5281;48.878;9.394;2022-09-24T14:24:55;20.50;99.90
10468;DHT22;5281;48.878;9.394;2022-09-24T14:27:24;20.70;99.90
10468;DHT22;5281;48.878;9.394;2022-09-24T14:29:54;20.70;99.90
10468;DHT22;5281;48.878;9.394;2022-09-24T14:32:26;20.60;99.90
10468;DHT22;5281;48.878;9.394;2022-09-24T14:34:54;20.60;99.90
10468;DHT22;5281;48.878;9.394;2022-09-24T14:37:25;20.60;99.90
10468;DHT22;5281;48.878;9.394;2022-09-24T14:39:57;20.60;99.90
10468;DHT22;5281;48.878;9.394;2022-09-24T14:42:29;20.60;99.90
10468;DHT22;5281;48.878;9.394;2022-09-24T14:44:58;20.50;99.90
10468;DHT22;5281;48.878;9.394;2022-09-24T14:47:27;20.30;99.90
10468;DHT22;5281;48.878;9.394;2022-09-24T14:49:54;20.30;99.90
10468;DHT22;5281;48.878;9.394;2022-09-24T14:52:28;20.30;99.90
10468;DHT22;5281;48.878;9.394;2022-09-24T14:55:11;20.20;99.90
10468;DHT22;5281;48.878;9.394;2022-09-24T14:57:38;20.10;99.90
10468;DHT22;5281;48.878;9.394;2022-09-24T15:00:19;20.10;99.90
10468;DHT22;5281;48.878;9.394;2022-09-24T15:02:49;20.00;99.90
10468;DHT22;5281;48.878;9.394;2022-09-24T15:05:16;19.90;99.90
10468;DHT22;5281;48.878;9.394;2022-09-24T15:07:50;19.80;99.90
10468;DHT22;5281;48.878;9.394;2022-09-24T15:10:18;19.60;99.90
10468;DHT22;5281;48.878;9.394;2022-09-24T15:12:46;19.60;99.90
10468;DHT22;5281;48.878;9.394;2022-09-24T15:15:28;19.40;99.90
10468;DHT22;5281;48.878;9.394;2022-09-24T15:17:56;19.40;99.90
10468;DHT22;5281;48.878;9.394;2022-09-24T15:20:23;19.40;99.90
10468;DHT22;5281;48.878;9.394;2022-09-24T15:22:52;19.40;99.90
10468;DHT22;5281;48.878;9.394;2022-09-24T15:25:18;19.40;99.90
10468;DHT22;5281;48.878;9.394;2022-09-24T15:27:45;19.40;99.90
10468;DHT22;5281;48.878;9.394;2022-09-24T15:30:18;19.40;99.90
10468;DHT22;5281;48.878;9.394;2022-09-24T15:32:45;19.50;99.90
10468;DHT22;5281;48.878;9.394;2022-09-24T15:35:14;19.50;99.90
10468;DHT22;5281;48.878;9.394;2022-09-24T15:37:42;19.50;99.90
10468;DHT22;5281;48.878;9.394;2022-09-24T15:40:18;19.40;99.90
10468;DHT22;5281;48.878;9.394;2022-09-24T15:42:47;19.30;99.90
10468;DHT22;5281;48.878;9.394;2022-09-24T15:45:18;19.30;99.90
10468;DHT22;5281;48.878;9.394;2022-09-24T15:47:46;19.20;99.90
10468;DHT22;5281;48.878;9.394;2022-09-24T15:50:13;19.20;99.90
10468;DHT22;5281;48.878;9.394;2022-09-24T15:52:43;19.20;99.90
10468;DHT22;5281;48.878;9.394;2022-09-24T15:55:15;19.10;99.90
10468;DHT22;5281;48.878;9.394;2022-09-24T15:57:42;19.00;99.90
10468;DHT22;5281;48.878;9.394;2022-09-24T16:00:16;18.90;99.90
10468;DHT22;5281;48.878;9.394;2022-09-24T16:02:45;18.90;99.90
10468;DHT22;5281;48.878;9.394;2022-09-24T16:05:14;18.80;99.90
10468;DHT22;5281;48.878;9.394;2022-09-24T16:07:41;18.80;99.90
10468;DHT22;5281;48.878;9.394;2022-09-24T16:10:09;18.70;99.90
10468;DHT22;5281;48.878;9.394;2022-09-24T16:12:38;18.80;99.90
10468;DHT22;5281;48.878;9.394;2022-09-24T16:15:06;18.70;99.90